sensor_id;sensor_type;location;lat;lon;timestamp;temperature;humidity
26103;DHT22;69760;49.380;8.998;2023-07-02T00:00:35;17.70;99.90
26103;DHT22;69760;49.380;8.998;2023-07-02T00:03:04;17.70;99.90
26103;DHT22;69760;49.380;8.998;2023-07-02T00:05:29;17.60;99.90
26103;DHT22;69760;49.380;8.998;2023-07-02T00:07:55;17.60;99.90
26103;DHT22;69760;49.380;8.998;2023-07-02T00:10:21;17.50;99.90
26103;DHT22;69760;49.380;8.998;2023-07-02T00:12:46;17.60;99.90
26103;DHT22;69760;49.380;8.998;2023-07-02T00:15:12;17.50;99.90
26103;DHT22;69760;49.380;8.998;2023-07-02T00:17:38;17.50;99.90
26103;DHT22;69760;49.380;8.998;2023-07-02T00:20:06;17.50;99.90
26103;DHT22;69760;49.380;8.998;2023-07-02T00:22:32;17.50;99.90
26103;DHT22;69760;49.380;8.998;2023-07-02T00:25:01;17.60;99.90
26103;DHT22;69760;49.380;8.998;2023-07-02T00:27:27;17.60;99.90
26103;DHT22;69760;49.380;8.998;2023-07-02T00:29:52;17.70;99.90
26103;DHT22;69760;49.380;8.998;2023-07-02T00:32:18;17.70;99.90
26103;DHT22;69760;49.380;8.998;2023-07-02T00:34:43;17.70;99.90
26103;DHT22;69760;49.380;8.998;2023-07-02T00:37:09;17.70;99.90
26103;DHT22;69760;49.380;8.998;2023-07-02T00:39:34;17.70;99.90
26103;DHT22;69760;49.380;8.998;2023-07-02T00:42:03;17.70;99.90
26103;DHT22;69760;49.380;8.998;2023-07-02T00:44:29;17.70;99.90
26103;DHT22;69760;49.380;8.998;2023-07-02T00:46:55;17.70;99.90
26103;DHT22;69760;49.380;8.998;2023-07-02T00:49:21;17.70;99.90
26103;DHT22;69760;49.380;8.998;2023-07-02T00:51:46;17.70;99.90
26103;DHT22;69760;49.380;8.998;2023-07-02T00:54:12;17.70;99.90
26103;DHT22;69760;49.380;8.998;2023-07-02T00:56:38;17.70;99.90
26103;DHT22;69760;49.380;8.998;2023-07-02T00:59:03;17.70;99.90
26103;DHT22;69760;49.380;8.998;2023-07-02T01:01:29;17.70;99.90
26103;DHT22;69760;49.380;8.998;2023-07-02T01:04:02;17.70;99.90
26103;DHT22;69760;49.380;8.998;2023-07-02T01:06:35;17.70;99.90
26103;DHT22;69760;49.380;8.998;2023-07-02T01:09:03;17.70;99.90
26103;DHT22;69760;49.380;8.998;2023-07-02T01:11:36;17.70;99.90
26103;DHT22;69760;49.380;8.998;2023-07-02T01:14:07;17.70;99.90
26103;DHT22;69760;49.380;8.998;2023-07-02T01:16:34;17.70;99.90
26103;DHT22;69760;49.380;8.998;2023-07-02T01:19:02;17.70;99.90
26103;DHT22;69760;49.380;8.998;2023-07-02T01:21:30;17.60;99.90
26103;DHT22;69760;49.380;8.998;2023-07-02T01:23:57;17.60;99.90
26103;DHT22;69760;49.380;8.998;2023-07-02T01:26:31;17.60;99.90
26103;DHT22;69760;49.380;8.998;2023-07-02T01:29:13;17.70;99.90
26103;DHT22;69760;49.380;8.998;2023-07-02T01:31:38;17.60;99.90
26103;DHT22;69760;49.380;8.998;2023-07-02T01:34:04;17.60;99.90
26103;DHT22;69760;49.380;8.998;2023-07-02T01:36:30;17.60;99.90
26103;DHT22;69760;49.380;8.998;2023-07-02T01:38:55;17.60;99.90
26103;DHT22;69760;49.380;8.998;2023-07-02T01:41:21;17.60;99.90
26103;DHT22;69760;49.380;8.998;2023-07-02T04:32:31;17.00;99.90
26103;DHT22;69760;49.380;8.998;2023-07-02T04:50:29;16.70;99.90
26103;DHT22;69760;49.380;8.998;2023-07-02T04:52:54;16.70;99.90
26103;DHT22;69760;49.380;8.998;2023-07-02T04:55:21;16.80;99.90
26103;DHT22;69760;49.380;8.998;2023-07-02T04:57:46;16.80;99.90
26103;DHT22;69760;49.380;8.998;2023-07-02T05:00:12;16.70;99.90
26103;DHT22;69760;49.380;8.998;2023-07-02T05:02:38;16.80;99.90
26103;DHT22;69760;49.380;8.998;2023-07-02T05:08:18;16.90;99.90
26103;DHT22;69760;49.380;8.998;2023-07-02T05:10:43;16.90;99.90
26103;DHT22;69760;49.380;8.998;2023-07-02T05:13:09;16.90;99.90
26103;DHT22;69760;49.380;8.998;2023-07-02T05:15:34;16.90;99.90
26103;DHT22;69760;49.380;8.998;2023-07-02T05:18:00;16.90;99.90
26103;DHT22;69760;49.380;8.998;2023-07-02T05:20:26;16.90;99.90
26103;DHT22;69760;49.380;8.998;2023-07-02T05:22:51;16.90;99.90
26103;DHT22;69760;49.380;8.998;2023-07-02T05:28:09;16.90;99.90
26103;DHT22;69760;49.380;8.998;2023-07-02T05:30:35;16.90;99.90
26103;DHT22;69760;49.380;8.998;2023-07-02T05:33:01;17.00;99.90
26103;DHT22;69760;49.380;8.998;2023-07-02T05:40:37;16.90;99.90
26103;DHT22;69760;49.380;8.998;2023-07-02T05:43:02;16.90;99.90
26103;DHT22;69760;49.380;8.998;2023-07-02T05:54:07;17.10;99.90
26103;DHT22;69760;49.380;8.998;2023-07-02T05:56:33;17.10;99.90
26103;DHT22;69760;49.380;8.998;2023-07-02T05:58:58;17.10;99.90
26103;DHT22;69760;49.380;8.998;2023-07-02T06:01:24;17.20;99.90
26103;DHT22;69760;49.380;8.998;2023-07-02T06:16:46;17.40;99.90
26103;DHT22;69760;49.380;8.998;2023-07-02T06:19:12;17.40;99.90
26103;DHT22;69760;49.380;8.998;2023-07-02T06:21:38;17.40;99.90
26103;DHT22;69760;49.380;8.998;2023-07-02T06:40:00;17.80;99.90
26103;DHT22;69760;49.380;8.998;2023-07-02T06:42:26;17.90;99.90
26103;DHT22;69760;49.380;8.998;2023-07-02T06:44:51;17.90;99.90
26103;DHT22;69760;49.380;8.998;2023-07-02T06:47:17;17.90;99.90
26103;DHT22;69760;49.380;8.998;2023-07-02T06:49:42;18.10;99.90
26103;DHT22;69760;49.380;8.998;2023-07-02T06:52:08;18.10;99.90
26103;DHT22;69760;49.380;8.998;2023-07-02T07:51:58;19.00;94.50
26103;DHT22;69760;49.380;8.998;2023-07-02T11:52:37;22.70;64.80
26103;DHT22;69760;49.380;8.998;2023-07-02T11:55:02;22.70;64.70
26103;DHT22;69760;49.380;8.998;2023-07-02T11:57:28;22.60;65.30
26103;DHT22;69760;49.380;8.998;2023-07-02T11:59:53;22.70;64.60
26103;DHT22;69760;49.380;8.998;2023-07-02T12:02:19;22.70;64.40
26103;DHT22;69760;49.380;8.998;2023-07-02T12:04:45;22.70;64.50
26103;DHT22;69760;49.380;8.998;2023-07-02T12:07:10;22.80;64.80
26103;DHT22;69760;49.380;8.998;2023-07-02T12:09:37;22.90;64.00
26103;DHT22;69760;49.380;8.998;2023-07-02T12:12:03;22.90;63.40
26103;DHT22;69760;49.380;8.998;2023-07-02T12:14:29;23.00;63.60
26103;DHT22;69760;49.380;8.998;2023-07-02T12:16:54;23.30;64.60
26103;DHT22;69760;49.380;8.998;2023-07-02T12:19:20;23.50;63.90
26103;DHT22;69760;49.380;8.998;2023-07-02T12:21:45;23.80;60.50
26103;DHT22;69760;49.380;8.998;2023-07-02T12:24:11;24.00;59.70
26103;DHT22;69760;49.380;8.998;2023-07-02T12:26:37;24.10;60.80
26103;DHT22;69760;49.380;8.998;2023-07-02T12:29:03;24.20;59.30
26103;DHT22;69760;49.380;8.998;2023-07-02T12:31:30;24.40;59.30
26103;DHT22;69760;49.380;8.998;2023-07-02T12:33:55;24.40;58.20
26103;DHT22;69760;49.380;8.998;2023-07-02T12:36:21;24.40;57.10
26103;DHT22;69760;49.380;8.998;2023-07-02T12:38:46;24.10;57.60
26103;DHT22;69760;49.380;8.998;2023-07-02T12:41:12;24.10;59.00
26103;DHT22;69760;49.380;8.998;2023-07-02T12:43:37;24.20;58.10
26103;DHT22;69760;49.380;8.998;2023-07-02T12:46:03;24.30;57.90
26103;DHT22;69760;49.380;8.998;2023-07-02T12:48:28;24.40;57.90
26103;DHT22;69760;49.380;8.998;2023-07-02T12:50:58;24.40;59.10
26103;DHT22;69760;49.380;8.998;2023-07-02T12:53:25;24.60;59.20
26103;DHT22;69760;49.380;8.998;2023-07-02T12:55:50;24.90;57.50
26103;DHT22;69760;49.380;8.998;2023-07-02T12:58:16;25.00;56.00
26103;DHT22;69760;49.380;8.998;2023-07-02T13:00:42;25.00;55.20
26103;DHT22;69760;49.380;8.998;2023-07-02T13:03:11;25.10;55.40
26103;DHT22;69760;49.380;8.998;2023-07-02T13:05:37;25.00;57.20
26103;DHT22;69760;49.380;8.998;2023-07-02T13:08:03;25.00;56.50
26103;DHT22;69760;49.380;8.998;2023-07-02T13:10:29;25.20;56.30
26103;DHT22;69760;49.380;8.998;2023-07-02T13:12:56;25.40;54.80
26103;DHT22;69760;49.380;8.998;2023-07-02T13:15:22;25.40;55.50
26103;DHT22;69760;49.380;8.998;2023-07-02T13:17:47;25.40;55.30
26103;DHT22;69760;49.380;8.998;2023-07-02T13:20:13;25.30;54.30
26103;DHT22;69760;49.380;8.998;2023-07-02T13:22:39;25.20;54.70
26103;DHT22;69760;49.380;8.998;2023-07-02T13:25:05;25.10;54.70
26103;DHT22;69760;49.380;8.998;2023-07-02T13:27:31;25.00;54.10
26103;DHT22;69760;49.380;8.998;2023-07-02T13:29:56;24.80;54.80
26103;DHT22;69760;49.380;8.998;2023-07-02T13:32:22;24.70;55.10
26103;DHT22;69760;49.380;8.998;2023-07-02T13:34:47;24.60;56.00
26103;DHT22;69760;49.380;8.998;2023-07-02T13:37:13;24.80;57.60
26103;DHT22;69760;49.380;8.998;2023-07-02T13:39:43;24.90;55.60
26103;DHT22;69760;49.380;8.998;2023-07-02T13:42:09;25.10;55.20
26103;DHT22;69760;49.380;8.998;2023-07-02T13:44:34;25.10;55.20
26103;DHT22;69760;49.380;8.998;2023-07-02T13:47:00;25.20;55.50
26103;DHT22;69760;49.380;8.998;2023-07-02T13:49:25;25.30;54.90
26103;DHT22;69760;49.380;8.998;2023-07-02T13:51:51;25.50;54.50
26103;DHT22;69760;49.380;8.998;2023-07-02T13:54:17;25.70;53.90
26103;DHT22;69760;49.380;8.998;2023-07-02T13:56:44;25.90;53.40
26103;DHT22;69760;49.380;8.998;2023-07-02T13:59:10;26.00;53.00
26103;DHT22;69760;49.380;8.998;2023-07-02T14:01:35;26.10;52.30
26103;DHT22;69760;49.380;8.998;2023-07-02T14:04:02;26.20;52.60
26103;DHT22;69760;49.380;8.998;2023-07-02T14:06:28;26.30;52.80
26103;DHT22;69760;49.380;8.998;2023-07-02T14:08:54;26.40;51.70
26103;DHT22;69760;49.380;8.998;2023-07-02T14:11:19;26.60;51.50
26103;DHT22;69760;49.380;8.998;2023-07-02T14:13:45;26.90;52.30
26103;DHT22;69760;49.380;8.998;2023-07-02T14:16:10;27.10;51.40
26103;DHT22;69760;49.380;8.998;2023-07-02T14:18:36;27.40;50.50
26103;DHT22;69760;49.380;8.998;2023-07-02T14:21:02;27.40;49.90
26103;DHT22;69760;49.380;8.998;2023-07-02T14:23:28;27.00;50.20
26103;DHT22;69760;49.380;8.998;2023-07-02T14:25:53;26.90;50.70
26103;DHT22;69760;49.380;8.998;2023-07-02T14:28:19;27.00;51.10
26103;DHT22;69760;49.380;8.998;2023-07-02T14:30:45;27.10;51.10
26103;DHT22;69760;49.380;8.998;2023-07-02T14:33:10;27.20;50.60
26103;DHT22;69760;49.380;8.998;2023-07-02T14:35:36;27.50;50.80
26103;DHT22;69760;49.380;8.998;2023-07-02T14:38:02;27.60;49.10
26103;DHT22;69760;49.380;8.998;2023-07-02T14:40:27;27.60;49.70
26103;DHT22;69760;49.380;8.998;2023-07-02T14:42:53;27.50;50.30
26103;DHT22;69760;49.380;8.998;2023-07-02T14:45:19;27.60;50.50
26103;DHT22;69760;49.380;8.998;2023-07-02T14:47:44;27.50;50.00
26103;DHT22;69760;49.380;8.998;2023-07-02T14:50:10;27.50;50.10
26103;DHT22;69760;49.380;8.998;2023-07-02T14:52:36;27.50;50.00
26103;DHT22;69760;49.380;8.998;2023-07-02T14:55:01;27.60;49.80
26103;DHT22;69760;49.380;8.998;2023-07-02T14:57:29;27.80;49.30
26103;DHT22;69760;49.380;8.998;2023-07-02T14:59:55;28.00;49.30
26103;DHT22;69760;49.380;8.998;2023-07-02T15:02:21;27.80;48.30
26103;DHT22;69760;49.380;8.998;2023-07-02T15:04:47;27.50;48.30
26103;DHT22;69760;49.380;8.998;2023-07-02T15:07:12;27.30;48.90
26103;DHT22;69760;49.380;8.998;2023-07-02T15:09:38;27.40;49.60
26103;DHT22;69760;49.380;8.998;2023-07-02T15:12:04;27.50;49.80
26103;DHT22;69760;49.380;8.998;2023-07-02T15:14:30;27.60;49.30
26103;DHT22;69760;49.380;8.998;2023-07-02T15:16:55;27.60;48.70
26103;DHT22;69760;49.380;8.998;2023-07-02T15:19:21;27.30;49.50
26103;DHT22;69760;49.380;8.998;2023-07-02T15:21:47;27.30;50.60
26103;DHT22;69760;49.380;8.998;2023-07-02T15:24:12;27.50;50.40
26103;DHT22;69760;49.380;8.998;2023-07-02T15:26:39;27.80;49.10
26103;DHT22;69760;49.380;8.998;2023-07-02T15:29:05;27.90;49.40
26103;DHT22;69760;49.380;8.998;2023-07-02T15:31:31;28.10;48.20
26103;DHT22;69760;49.380;8.998;2023-07-02T15:33:57;28.30;47.60
26103;DHT22;69760;49.380;8.998;2023-07-02T15:36:22;28.10;47.20
26103;DHT22;69760;49.380;8.998;2023-07-02T15:38:49;28.10;47.90
26103;DHT22;69760;49.380;8.998;2023-07-02T15:41:18;28.30;47.80
26103;DHT22;69760;49.380;8.998;2023-07-02T15:43:47;28.40;46.60
26103;DHT22;69760;49.380;8.998;2023-07-02T15:46:15;28.50;47.60
26103;DHT22;69760;49.380;8.998;2023-07-02T15:48:41;28.50;47.50
26103;DHT22;69760;49.380;8.998;2023-07-02T15:51:08;28.40;47.00
26103;DHT22;69760;49.380;8.998;2023-07-02T15:53:36;28.20;46.80
26103;DHT22;69760;49.380;8.998;2023-07-02T15:56:02;28.10;47.70
26103;DHT22;69760;49.380;8.998;2023-07-02T15:58:29;28.00;47.30
26103;DHT22;69760;49.380;8.998;2023-07-02T16:00:56;27.90;46.80
26103;DHT22;69760;49.380;8.998;2023-07-02T16:03:32;27.80;47.10
26103;DHT22;69760;49.380;8.998;2023-07-02T16:05:57;27.60;47.90
26103;DHT22;69760;49.380;8.998;2023-07-02T16:08:23;27.60;47.90
26103;DHT22;69760;49.380;8.998;2023-07-02T16:10:49;27.70;48.90
26103;DHT22;69760;49.380;8.998;2023-07-02T16:13:14;28.10;48.60
26103;DHT22;69760;49.380;8.998;2023-07-02T16:15:40;28.30;48.00
26103;DHT22;69760;49.380;8.998;2023-07-02T16:18:07;28.50;47.20
26103;DHT22;69760;49.380;8.998;2023-07-02T16:20:33;28.60;46.40
26103;DHT22;69760;49.380;8.998;2023-07-02T16:23:00;28.60;46.60
26103;DHT22;69760;49.380;8.998;2023-07-02T16:25:26;28.60;46.90
26103;DHT22;69760;49.380;8.998;2023-07-02T16:27:52;28.50;47.00
26103;DHT22;69760;49.380;8.998;2023-07-02T16:30:17;28.70;46.30
26103;DHT22;69760;49.380;8.998;2023-07-02T16:32:43;28.70;45.70
26103;DHT22;69760;49.380;8.998;2023-07-02T16:35:09;28.80;46.40
26103;DHT22;69760;49.380;8.998;2023-07-02T16:37:34;28.90;45.70
26103;DHT22;69760;49.380;8.998;2023-07-02T16:40:00;28.80;46.10
26103;DHT22;69760;49.380;8.998;2023-07-02T16:42:26;28.80;46.00
26103;DHT22;69760;49.380;8.998;2023-07-02T16:44:52;28.80;45.60
26103;DHT22;69760;49.380;8.998;2023-07-02T16:47:17;28.70;45.50
26103;DHT22;69760;49.380;8.998;2023-07-02T16:49:43;28.80;46.00
26103;DHT22;69760;49.380;8.998;2023-07-02T16:52:12;28.60;45.70
26103;DHT22;69760;49.380;8.998;2023-07-02T16:54:38;28.50;46.20
26103;DHT22;69760;49.380;8.998;2023-07-02T16:57:04;28.10;45.90
26103;DHT22;69760;49.380;8.998;2023-07-02T16:59:32;28.00;46.70
26103;DHT22;69760;49.380;8.998;2023-07-02T17:02:03;27.90;46.20
26103;DHT22;69760;49.380;8.998;2023-07-02T17:04:29;27.70;46.50
26103;DHT22;69760;49.380;8.998;2023-07-02T17:06:57;27.60;47.60
26103;DHT22;69760;49.380;8.998;2023-07-02T17:09:25;27.80;48.20
26103;DHT22;69760;49.380;8.998;2023-07-02T17:12:12;27.90;47.50
26103;DHT22;69760;49.380;8.998;2023-07-02T17:14:39;28.10;47.30
26103;DHT22;69760;49.380;8.998;2023-07-02T17:17:13;28.30;47.20
26103;DHT22;69760;49.380;8.998;2023-07-02T17:19:41;28.30;47.20
26103;DHT22;69760;49.380;8.998;2023-07-02T17:22:09;28.20;47.10
26103;DHT22;69760;49.380;8.998;2023-07-02T17:24:39;28.00;46.00
26103;DHT22;69760;49.380;8.998;2023-07-02T17:27:05;27.70;46.50
26103;DHT22;69760;49.380;8.998;2023-07-02T17:29:31;27.50;47.30
26103;DHT22;69760;49.380;8.998;2023-07-02T17:31:59;27.50;48.10
26103;DHT22;69760;49.380;8.998;2023-07-02T17:34:27;27.60;48.00
26103;DHT22;69760;49.380;8.998;2023-07-02T17:36:56;27.70;48.30
26103;DHT22;69760;49.380;8.998;2023-07-02T17:39:22;27.80;47.00
26103;DHT22;69760;49.380;8.998;2023-07-02T17:41:50;27.70;47.20
26103;DHT22;69760;49.380;8.998;2023-07-02T17:44:18;27.60;47.40
26103;DHT22;69760;49.380;8.998;2023-07-02T17:46:51;27.40;47.60
26103;DHT22;69760;49.380;8.998;2023-07-02T17:49:18;27.20;47.40
26103;DHT22;69760;49.380;8.998;2023-07-02T17:51:44;27.20;48.00
26103;DHT22;69760;49.380;8.998;2023-07-02T17:54:09;27.10;47.70
26103;DHT22;69760;49.380;8.998;2023-07-02T17:56:35;27.00;48.10
26103;DHT22;69760;49.380;8.998;2023-07-02T17:59:01;26.80;48.00
26103;DHT22;69760;49.380;8.998;2023-07-02T18:01:27;26.70;48.50
26103;DHT22;69760;49.380;8.998;2023-07-02T18:03:52;26.60;49.30
26103;DHT22;69760;49.380;8.998;2023-07-02T18:06:19;26.50;49.20
26103;DHT22;69760;49.380;8.998;2023-07-02T18:08:45;26.40;49.50
26103;DHT22;69760;49.380;8.998;2023-07-02T18:11:11;26.40;49.40
26103;DHT22;69760;49.380;8.998;2023-07-02T18:13:36;26.40;49.70
26103;DHT22;69760;49.380;8.998;2023-07-02T19:07:49;24.40;54.60
26103;DHT22;69760;49.380;8.998;2023-07-02T19:10:15;24.30;54.80
26103;DHT22;69760;49.380;8.998;2023-07-02T19:12:41;24.20;54.90
26103;DHT22;69760;49.380;8.998;2023-07-02T19:15:10;24.10;55.00
26103;DHT22;69760;49.380;8.998;2023-07-02T19:17:36;24.00;55.20
26103;DHT22;69760;49.380;8.998;2023-07-02T19:20:03;23.90;55.50
26103;DHT22;69760;49.380;8.998;2023-07-02T19:22:29;23.90;55.60
26103;DHT22;69760;49.380;8.998;2023-07-02T19:24:56;23.60;55.80
26103;DHT22;69760;49.380;8.998;2023-07-02T19:27:21;23.60;56.30
26103;DHT22;69760;49.380;8.998;2023-07-02T19:29:50;23.50;56.60
26103;DHT22;69760;49.380;8.998;2023-07-02T19:32:23;23.40;57.10
26103;DHT22;69760;49.380;8.998;2023-07-02T19:34:49;23.30;57.60
26103;DHT22;69760;49.380;8.998;2023-07-02T19:37:16;23.20;57.80
26103;DHT22;69760;49.380;8.998;2023-07-02T19:39:42;23.00;57.60
26103;DHT22;69760;49.380;8.998;2023-07-02T19:42:07;22.90;58.20
26103;DHT22;69760;49.380;8.998;2023-07-02T19:44:37;22.80;59.00
26103;DHT22;69760;49.380;8.998;2023-07-02T19:47:03;22.80;59.10
26103;DHT22;69760;49.380;8.998;2023-07-02T19:49:29;22.70;59.60
26103;DHT22;69760;49.380;8.998;2023-07-02T19:51:55;22.60;59.70
26103;DHT22;69760;49.380;8.998;2023-07-02T19:54:21;22.60;60.00
26103;DHT22;69760;49.380;8.998;2023-07-02T19:56:47;22.50;60.20
26103;DHT22;69760;49.380;8.998;2023-07-02T19:59:14;22.50;60.90
26103;DHT22;69760;49.380;8.998;2023-07-02T20:01:39;22.40;61.10
26103;DHT22;69760;49.380;8.998;2023-07-02T20:04:08;22.40;61.30
26103;DHT22;69760;49.380;8.998;2023-07-02T20:06:38;22.30;62.00
26103;DHT22;69760;49.380;8.998;2023-07-02T20:09:04;22.20;62.30
26103;DHT22;69760;49.380;8.998;2023-07-02T20:11:29;22.20;62.60
26103;DHT22;69760;49.380;8.998;2023-07-02T20:13:55;22.00;63.00
26103;DHT22;69760;49.380;8.998;2023-07-02T20:16:21;22.00;63.40
26103;DHT22;69760;49.380;8.998;2023-07-02T20:18:46;21.90;63.90
26103;DHT22;69760;49.380;8.998;2023-07-02T20:21:12;21.80;64.00
26103;DHT22;69760;49.380;8.998;2023-07-02T20:23:38;21.70;64.70
26103;DHT22;69760;49.380;8.998;2023-07-02T20:26:04;21.60;65.40
26103;DHT22;69760;49.380;8.998;2023-07-02T20:28:29;21.50;65.80
26103;DHT22;69760;49.380;8.998;2023-07-02T20:30:55;21.40;66.20
26103;DHT22;69760;49.380;8.998;2023-07-02T20:33:22;21.30;67.30
26103;DHT22;69760;49.380;8.998;2023-07-02T20:35:48;21.20;67.10
26103;DHT22;69760;49.380;8.998;2023-07-02T20:38:13;21.10;67.40
26103;DHT22;69760;49.380;8.998;2023-07-02T20:40:39;21.10;67.80
26103;DHT22;69760;49.380;8.998;2023-07-02T20:43:05;21.00;68.00
26103;DHT22;69760;49.380;8.998;2023-07-02T20:45:39;21.00;68.50
26103;DHT22;69760;49.380;8.998;2023-07-02T20:48:05;20.90;69.00
26103;DHT22;69760;49.380;8.998;2023-07-02T20:50:30;20.80;69.10
26103;DHT22;69760;49.380;8.998;2023-07-02T20:52:56;20.70;69.40
26103;DHT22;69760;49.380;8.998;2023-07-02T20:55:23;20.60;70.00
26103;DHT22;69760;49.380;8.998;2023-07-02T20:57:48;20.40;71.10
26103;DHT22;69760;49.380;8.998;2023-07-02T21:00:14;20.30;71.00
26103;DHT22;69760;49.380;8.998;2023-07-02T21:02:41;20.30;71.50
26103;DHT22;69760;49.380;8.998;2023-07-02T21:05:08;20.20;72.00
26103;DHT22;69760;49.380;8.998;2023-07-02T21:07:34;20.10;72.40
26103;DHT22;69760;49.380;8.998;2023-07-02T21:10:00;20.00;72.70
26103;DHT22;69760;49.380;8.998;2023-07-02T21:12:26;19.90;73.00
26103;DHT22;69760;49.380;8.998;2023-07-02T21:14:53;19.90;73.30
26103;DHT22;69760;49.380;8.998;2023-07-02T21:17:19;19.80;73.50
26103;DHT22;69760;49.380;8.998;2023-07-02T21:19:45;19.70;73.80
26103;DHT22;69760;49.380;8.998;2023-07-02T21:22:10;19.60;74.10
26103;DHT22;69760;49.380;8.998;2023-07-02T21:24:36;19.50;74.40
26103;DHT22;69760;49.380;8.998;2023-07-02T21:27:02;19.40;74.50
26103;DHT22;69760;49.380;8.998;2023-07-02T21:29:28;19.40;74.80
26103;DHT22;69760;49.380;8.998;2023-07-02T21:31:53;19.30;75.10
26103;DHT22;69760;49.380;8.998;2023-07-02T21:34:19;19.20;75.20
26103;DHT22;69760;49.380;8.998;2023-07-02T21:36:45;19.20;75.60
26103;DHT22;69760;49.380;8.998;2023-07-02T21:39:10;19.10;75.80
26103;DHT22;69760;49.380;8.998;2023-07-02T21:41:36;19.10;76.00
26103;DHT22;69760;49.380;8.998;2023-07-02T21:44:05;19.10;76.40
26103;DHT22;69760;49.380;8.998;2023-07-02T21:46:31;19.00;76.80
26103;DHT22;69760;49.380;8.998;2023-07-02T21:48:57;18.80;76.90
26103;DHT22;69760;49.380;8.998;2023-07-02T21:51:23;18.80;77.10
26103;DHT22;69760;49.380;8.998;2023-07-02T21:53:49;18.70;77.40
26103;DHT22;69760;49.380;8.998;2023-07-02T21:56:16;18.60;77.90
26103;DHT22;69760;49.380;8.998;2023-07-02T21:58:42;18.60;78.30
26103;DHT22;69760;49.380;8.998;2023-07-02T22:01:08;18.50;78.50
26103;DHT22;69760;49.380;8.998;2023-07-02T22:03:35;18.40;78.70
26103;DHT22;69760;49.380;8.998;2023-07-02T22:06:00;18.30;78.80
26103;DHT22;69760;49.380;8.998;2023-07-02T22:08:26;18.30;79.10
26103;DHT22;69760;49.380;8.998;2023-07-02T22:10:52;18.20;79.10
26103;DHT22;69760;49.380;8.998;2023-07-02T22:13:18;18.20;79.20
26103;DHT22;69760;49.380;8.998;2023-07-02T22:15:44;18.20;79.30
26103;DHT22;69760;49.380;8.998;2023-07-02T22:18:10;18.20;79.60
26103;DHT22;69760;49.380;8.998;2023-07-02T22:20:36;18.10;79.80
26103;DHT22;69760;49.380;8.998;2023-07-02T22:23:05;18.10;80.00
26103;DHT22;69760;49.380;8.998;2023-07-02T22:25:31;18.10;80.10
26103;DHT22;69760;49.380;8.998;2023-07-02T22:27:57;18.00;80.20
26103;DHT22;69760;49.380;8.998;2023-07-02T22:30:23;17.90;80.20
26103;DHT22;69760;49.380;8.998;2023-07-02T22:32:49;17.90;80.40
26103;DHT22;69760;49.380;8.998;2023-07-02T22:35:15;17.80;80.70
26103;DHT22;69760;49.380;8.998;2023-07-02T22:37:40;17.80;81.20
26103;DHT22;69760;49.380;8.998;2023-07-02T22:40:08;17.70;81.60
26103;DHT22;69760;49.380;8.998;2023-07-02T22:42:35;17.70;81.90
26103;DHT22;69760;49.380;8.998;2023-07-02T22:45:07;17.60;82.10
26103;DHT22;69760;49.380;8.998;2023-07-02T22:47:33;17.50;82.20
26103;DHT22;69760;49.380;8.998;2023-07-02T22:49:59;17.50;82.50
26103;DHT22;69760;49.380;8.998;2023-07-02T22:52:24;17.50;82.50
26103;DHT22;69760;49.380;8.998;2023-07-02T22:54:54;17.50;82.50
26103;DHT22;69760;49.380;8.998;2023-07-02T22:57:21;17.40;82.60
26103;DHT22;69760;49.380;8.998;2023-07-02T22:59:47;17.40;82.60
26103;DHT22;69760;49.380;8.998;2023-07-02T23:02:13;17.40;82.90
26103;DHT22;69760;49.380;8.998;2023-07-02T23:04:38;17.40;83.00
26103;DHT22;69760;49.380;8.998;2023-07-02T23:07:04;17.30;83.20
26103;DHT22;69760;49.380;8.998;2023-07-02T23:09:30;17.30;83.60
26103;DHT22;69760;49.380;8.998;2023-07-02T23:11:57;17.20;83.90
26103;DHT22;69760;49.380;8.998;2023-07-02T23:14:23;17.10;85.10
26103;DHT22;69760;49.380;8.998;2023-07-02T23:16:49;17.00;85.10
26103;DHT22;69760;49.380;8.998;2023-07-02T23:19:14;17.00;86.20
26103;DHT22;69760;49.380;8.998;2023-07-02T23:21:40;16.80;86.80
26103;DHT22;69760;49.380;8.998;2023-07-02T23:24:13;16.80;86.80
26103;DHT22;69760;49.380;8.998;2023-07-02T23:26:42;16.80;86.70
26103;DHT22;69760;49.380;8.998;2023-07-02T23:29:08;16.80;86.70
26103;DHT22;69760;49.380;8.998;2023-07-02T23:31:34;16.80;86.80
26103;DHT22;69760;49.380;8.998;2023-07-02T23:34:00;16.70;87.80
26103;DHT22;69760;49.380;8.998;2023-07-02T23:36:25;16.70;87.00
26103;DHT22;69760;49.380;8.998;2023-07-02T23:38:52;16.70;87.10
26103;DHT22;69760;49.380;8.998;2023-07-02T23:41:19;16.70;87.20
26103;DHT22;69760;49.380;8.998;2023-07-02T23:43:45;16.70;87.30
26103;DHT22;69760;49.380;8.998;2023-07-02T23:46:11;16.70;87.30
26103;DHT22;69760;49.380;8.998;2023-07-02T23:48:36;16.70;87.40
26103;DHT22;69760;49.380;8.998;2023-07-02T23:51:02;16.70;87.40
26103;DHT22;69760;49.380;8.998;2023-07-02T23:53:28;16.70;87.50
26103;DHT22;69760;49.380;8.998;2023-07-02T23:55:54;16.70;87.90
26103;DHT22;69760;49.380;8.998;2023-07-02T23:58:20;16.60;88.40
